sensor_id;sensor_type;location;lat;lon;timestamp;temperature;humidity
40289;DHT22;28991;52.028;5.526;2023-06-14T00:01:43;26.80;37.40
40289;DHT22;28991;52.028;5.526;2023-06-14T00:04:11;26.90;37.50
40289;DHT22;28991;52.028;5.526;2023-06-14T00:06:38;26.80;37.40
40289;DHT22;28991;52.028;5.526;2023-06-14T00:09:04;26.80;37.40
40289;DHT22;28991;52.028;5.526;2023-06-14T00:11:31;26.80;37.40
40289;DHT22;28991;52.028;5.526;2023-06-14T00:13:56;26.80;37.40
40289;DHT22;28991;52.028;5.526;2023-06-14T00:16:22;26.80;37.50
40289;DHT22;28991;52.028;5.526;2023-06-14T00:18:48;26.80;37.50
40289;DHT22;28991;52.028;5.526;2023-06-14T00:21:14;26.90;37.50
40289;DHT22;28991;52.028;5.526;2023-06-14T00:23:39;26.80;37.50
40289;DHT22;28991;52.028;5.526;2023-06-14T00:26:05;26.80;37.50
40289;DHT22;28991;52.028;5.526;2023-06-14T00:28:30;26.80;37.50
40289;DHT22;28991;52.028;5.526;2023-06-14T00:30:56;26.80;37.50
40289;DHT22;28991;52.028;5.526;2023-06-14T00:33:22;26.90;37.60
40289;DHT22;28991;52.028;5.526;2023-06-14T00:35:47;26.80;37.50
40289;DHT22;28991;52.028;5.526;2023-06-14T00:38:13;26.80;37.60
40289;DHT22;28991;52.028;5.526;2023-06-14T00:40:39;26.80;37.60
40289;DHT22;28991;52.028;5.526;2023-06-14T00:43:04;26.80;37.60
40289;DHT22;28991;52.028;5.526;2023-06-14T00:45:30;26.80;37.60
40289;DHT22;28991;52.028;5.526;2023-06-14T00:47:57;26.80;37.60
40289;DHT22;28991;52.028;5.526;2023-06-14T00:50:23;26.80;37.60
40289;DHT22;28991;52.028;5.526;2023-06-14T00:52:49;26.80;37.60
40289;DHT22;28991;52.028;5.526;2023-06-14T00:55:15;26.80;37.60
40289;DHT22;28991;52.028;5.526;2023-06-14T00:57:41;26.80;37.70
40289;DHT22;28991;52.028;5.526;2023-06-14T01:00:07;26.80;37.60
40289;DHT22;28991;52.028;5.526;2023-06-14T01:02:38;26.80;37.70
40289;DHT22;28991;52.028;5.526;2023-06-14T01:05:05;26.80;37.70
40289;DHT22;28991;52.028;5.526;2023-06-14T01:13:19;26.80;37.80
40289;DHT22;28991;52.028;5.526;2023-06-14T01:15:46;26.90;37.80
40289;DHT22;28991;52.028;5.526;2023-06-14T01:18:12;26.80;37.70
40289;DHT22;28991;52.028;5.526;2023-06-14T01:20:46;26.80;37.80
40289;DHT22;28991;52.028;5.526;2023-06-14T01:23:20;26.80;37.80
40289;DHT22;28991;52.028;5.526;2023-06-14T01:25:46;26.80;37.80
40289;DHT22;28991;52.028;5.526;2023-06-14T01:28:13;26.80;37.80
40289;DHT22;28991;52.028;5.526;2023-06-14T01:30:41;26.70;37.70
40289;DHT22;28991;52.028;5.526;2023-06-14T01:33:20;26.70;37.80
40289;DHT22;28991;52.028;5.526;2023-06-14T01:35:47;26.80;37.90
40289;DHT22;28991;52.028;5.526;2023-06-14T01:38:13;26.70;37.80
40289;DHT22;28991;52.028;5.526;2023-06-14T01:40:41;26.70;37.80
40289;DHT22;28991;52.028;5.526;2023-06-14T01:43:08;26.70;37.80
40289;DHT22;28991;52.028;5.526;2023-06-14T01:45:35;26.80;37.90
40289;DHT22;28991;52.028;5.526;2023-06-14T01:48:02;26.70;37.80
40289;DHT22;28991;52.028;5.526;2023-06-14T01:50:29;26.70;37.90
40289;DHT22;28991;52.028;5.526;2023-06-14T01:52:55;26.70;37.90
40289;DHT22;28991;52.028;5.526;2023-06-14T01:55:21;26.70;37.90
40289;DHT22;28991;52.028;5.526;2023-06-14T01:57:47;26.70;37.90
40289;DHT22;28991;52.028;5.526;2023-06-14T02:00:14;26.70;37.90
40289;DHT22;28991;52.028;5.526;2023-06-14T02:02:40;26.70;37.90
40289;DHT22;28991;52.028;5.526;2023-06-14T02:05:07;26.70;37.90
40289;DHT22;28991;52.028;5.526;2023-06-14T02:07:33;26.70;38.00
40289;DHT22;28991;52.028;5.526;2023-06-14T02:09:59;26.70;38.00
40289;DHT22;28991;52.028;5.526;2023-06-14T02:12:24;26.70;38.00
40289;DHT22;28991;52.028;5.526;2023-06-14T02:14:50;26.70;38.00
40289;DHT22;28991;52.028;5.526;2023-06-14T02:17:16;26.60;38.00
40289;DHT22;28991;52.028;5.526;2023-06-14T02:19:42;26.70;38.00
40289;DHT22;28991;52.028;5.526;2023-06-14T02:22:08;26.70;38.00
40289;DHT22;28991;52.028;5.526;2023-06-14T02:24:34;26.70;38.00
40289;DHT22;28991;52.028;5.526;2023-06-14T02:27:01;26.90;38.20
40289;DHT22;28991;52.028;5.526;2023-06-14T02:29:27;26.70;38.10
40289;DHT22;28991;52.028;5.526;2023-06-14T02:31:52;26.70;38.00
40289;DHT22;28991;52.028;5.526;2023-06-14T02:34:18;26.60;38.00
40289;DHT22;28991;52.028;5.526;2023-06-14T02:36:45;26.70;38.10
40289;DHT22;28991;52.028;5.526;2023-06-14T02:39:11;26.90;38.80
40289;DHT22;28991;52.028;5.526;2023-06-14T02:41:37;26.70;38.10
40289;DHT22;28991;52.028;5.526;2023-06-14T02:44:03;26.70;38.10
40289;DHT22;28991;52.028;5.526;2023-06-14T02:46:28;26.60;38.10
40289;DHT22;28991;52.028;5.526;2023-06-14T02:48:54;26.70;38.20
40289;DHT22;28991;52.028;5.526;2023-06-14T02:51:20;26.70;38.20
40289;DHT22;28991;52.028;5.526;2023-06-14T02:53:45;26.70;38.20
40289;DHT22;28991;52.028;5.526;2023-06-14T02:56:11;26.90;38.40
40289;DHT22;28991;52.028;5.526;2023-06-14T02:58:37;26.60;38.20
40289;DHT22;28991;52.028;5.526;2023-06-14T03:01:04;26.60;38.20
40289;DHT22;28991;52.028;5.526;2023-06-14T03:03:30;27.10;38.60
40289;DHT22;28991;52.028;5.526;2023-06-14T03:05:56;26.60;38.30
40289;DHT22;28991;52.028;5.526;2023-06-14T03:08:22;26.60;38.30
40289;DHT22;28991;52.028;5.526;2023-06-14T03:10:53;26.60;38.30
40289;DHT22;28991;52.028;5.526;2023-06-14T03:13:18;26.60;38.30
40289;DHT22;28991;52.028;5.526;2023-06-14T03:15:47;26.60;38.40
40289;DHT22;28991;52.028;5.526;2023-06-14T03:18:18;26.60;38.40
40289;DHT22;28991;52.028;5.526;2023-06-14T03:20:44;26.60;38.40
40289;DHT22;28991;52.028;5.526;2023-06-14T03:23:11;26.60;38.40
40289;DHT22;28991;52.028;5.526;2023-06-14T03:25:37;26.60;38.40
40289;DHT22;28991;52.028;5.526;2023-06-14T03:28:04;26.60;38.50
40289;DHT22;28991;52.028;5.526;2023-06-14T03:30:30;26.40;38.30
40289;DHT22;28991;52.028;5.526;2023-06-14T03:32:57;26.60;38.50
40289;DHT22;28991;52.028;5.526;2023-06-14T03:35:23;26.60;38.50
40289;DHT22;28991;52.028;5.526;2023-06-14T03:37:49;26.50;38.40
40289;DHT22;28991;52.028;5.526;2023-06-14T03:40:18;26.60;38.50
40289;DHT22;28991;52.028;5.526;2023-06-14T03:42:44;26.60;38.60
40289;DHT22;28991;52.028;5.526;2023-06-14T03:45:10;26.60;38.50
40289;DHT22;28991;52.028;5.526;2023-06-14T03:47:36;26.60;38.50
40289;DHT22;28991;52.028;5.526;2023-06-14T03:50:02;26.60;38.60
40289;DHT22;28991;52.028;5.526;2023-06-14T03:52:29;26.60;38.60
40289;DHT22;28991;52.028;5.526;2023-06-14T03:54:54;26.60;38.60
40289;DHT22;28991;52.028;5.526;2023-06-14T03:57:22;26.60;38.60
40289;DHT22;28991;52.028;5.526;2023-06-14T03:59:48;26.60;38.60
40289;DHT22;28991;52.028;5.526;2023-06-14T04:02:13;26.60;38.60
40289;DHT22;28991;52.028;5.526;2023-06-14T04:04:43;26.60;38.60
40289;DHT22;28991;52.028;5.526;2023-06-14T04:07:11;26.60;38.60
40289;DHT22;28991;52.028;5.526;2023-06-14T04:09:37;26.70;38.60
40289;DHT22;28991;52.028;5.526;2023-06-14T04:12:04;26.70;38.40
40289;DHT22;28991;52.028;5.526;2023-06-14T04:14:29;26.60;38.00
40289;DHT22;28991;52.028;5.526;2023-06-14T04:16:56;26.60;37.50
40289;DHT22;28991;52.028;5.526;2023-06-14T04:19:22;26.60;37.00
40289;DHT22;28991;52.028;5.526;2023-06-14T04:21:47;26.60;36.70
40289;DHT22;28991;52.028;5.526;2023-06-14T04:24:13;26.50;36.50
40289;DHT22;28991;52.028;5.526;2023-06-14T04:26:43;26.40;36.30
40289;DHT22;28991;52.028;5.526;2023-06-14T04:29:10;26.30;36.20
40289;DHT22;28991;52.028;5.526;2023-06-14T04:31:40;26.40;36.20
40289;DHT22;28991;52.028;5.526;2023-06-14T04:34:05;26.30;36.00
40289;DHT22;28991;52.028;5.526;2023-06-14T04:36:34;26.20;35.90
40289;DHT22;28991;52.028;5.526;2023-06-14T04:39:02;26.20;35.80
40289;DHT22;28991;52.028;5.526;2023-06-14T04:41:30;26.10;35.70
40289;DHT22;28991;52.028;5.526;2023-06-14T04:43:59;26.10;35.70
40289;DHT22;28991;52.028;5.526;2023-06-14T04:46:30;26.00;35.60
40289;DHT22;28991;52.028;5.526;2023-06-14T04:48:57;26.00;35.60
40289;DHT22;28991;52.028;5.526;2023-06-14T04:51:26;26.00;35.60
40289;DHT22;28991;52.028;5.526;2023-06-14T04:53:57;25.90;35.50
40289;DHT22;28991;52.028;5.526;2023-06-14T04:56:24;25.90;35.60
40289;DHT22;28991;52.028;5.526;2023-06-14T04:58:51;25.90;35.60
40289;DHT22;28991;52.028;5.526;2023-06-14T05:01:18;25.90;35.60
40289;DHT22;28991;52.028;5.526;2023-06-14T05:03:43;25.90;35.30
40289;DHT22;28991;52.028;5.526;2023-06-14T05:06:10;25.50;35.10
40289;DHT22;28991;52.028;5.526;2023-06-14T05:08:37;25.20;35.60
40289;DHT22;28991;52.028;5.526;2023-06-14T05:11:02;24.70;36.10
40289;DHT22;28991;52.028;5.526;2023-06-14T05:13:28;24.40;36.60
40289;DHT22;28991;52.028;5.526;2023-06-14T05:15:53;24.20;37.10
40289;DHT22;28991;52.028;5.526;2023-06-14T05:18:19;23.90;37.50
40289;DHT22;28991;52.028;5.526;2023-06-14T05:20:45;23.90;37.80
40289;DHT22;28991;52.028;5.526;2023-06-14T05:23:11;23.80;38.10
40289;DHT22;28991;52.028;5.526;2023-06-14T05:25:43;23.80;38.10
40289;DHT22;28991;52.028;5.526;2023-06-14T05:28:09;23.80;37.70
40289;DHT22;28991;52.028;5.526;2023-06-14T05:30:35;23.90;37.80
40289;DHT22;28991;52.028;5.526;2023-06-14T05:33:01;24.00;37.90
40289;DHT22;28991;52.028;5.526;2023-06-14T05:35:26;24.40;37.70
40289;DHT22;28991;52.028;5.526;2023-06-14T05:37:52;24.30;37.60
40289;DHT22;28991;52.028;5.526;2023-06-14T05:40:19;24.50;37.80
40289;DHT22;28991;52.028;5.526;2023-06-14T05:42:45;24.60;37.50
40289;DHT22;28991;52.028;5.526;2023-06-14T05:45:11;24.70;37.10
40289;DHT22;28991;52.028;5.526;2023-06-14T05:47:37;24.80;36.90
40289;DHT22;28991;52.028;5.526;2023-06-14T05:50:02;24.80;36.70
40289;DHT22;28991;52.028;5.526;2023-06-14T05:52:28;24.90;36.50
40289;DHT22;28991;52.028;5.526;2023-06-14T05:54:55;25.00;36.40
40289;DHT22;28991;52.028;5.526;2023-06-14T05:57:20;25.00;36.20
40289;DHT22;28991;52.028;5.526;2023-06-14T05:59:46;24.90;36.10
40289;DHT22;28991;52.028;5.526;2023-06-14T06:02:11;24.90;36.10
40289;DHT22;28991;52.028;5.526;2023-06-14T06:04:37;25.00;36.30
40289;DHT22;28991;52.028;5.526;2023-06-14T06:07:03;25.10;36.10
40289;DHT22;28991;52.028;5.526;2023-06-14T06:09:29;25.10;36.10
40289;DHT22;28991;52.028;5.526;2023-06-14T06:11:54;25.10;36.50
40289;DHT22;28991;52.028;5.526;2023-06-14T06:14:20;25.10;35.80
40289;DHT22;28991;52.028;5.526;2023-06-14T06:16:46;25.10;35.60
40289;DHT22;28991;52.028;5.526;2023-06-14T06:19:11;25.10;35.60
40289;DHT22;28991;52.028;5.526;2023-06-14T06:21:37;25.20;35.50
40289;DHT22;28991;52.028;5.526;2023-06-14T06:24:05;25.10;35.40
40289;DHT22;28991;52.028;5.526;2023-06-14T06:26:31;25.30;35.50
40289;DHT22;28991;52.028;5.526;2023-06-14T06:28:59;25.30;35.50
40289;DHT22;28991;52.028;5.526;2023-06-14T06:31:25;25.30;35.40
40289;DHT22;28991;52.028;5.526;2023-06-14T06:33:53;25.40;35.40
40289;DHT22;28991;52.028;5.526;2023-06-14T06:36:19;25.30;35.40
40289;DHT22;28991;52.028;5.526;2023-06-14T06:38:47;25.50;35.40
40289;DHT22;28991;52.028;5.526;2023-06-14T06:41:12;25.50;35.30
40289;DHT22;28991;52.028;5.526;2023-06-14T06:43:38;25.60;35.20
40289;DHT22;28991;52.028;5.526;2023-06-14T06:46:03;25.60;35.20
40289;DHT22;28991;52.028;5.526;2023-06-14T06:48:29;25.70;35.20
40289;DHT22;28991;52.028;5.526;2023-06-14T06:50:55;25.70;35.00
40289;DHT22;28991;52.028;5.526;2023-06-14T06:53:20;25.70;34.90
40289;DHT22;28991;52.028;5.526;2023-06-14T06:55:46;25.70;35.00
40289;DHT22;28991;52.028;5.526;2023-06-14T06:58:13;25.80;35.00
40289;DHT22;28991;52.028;5.526;2023-06-14T07:00:39;25.80;34.90
40289;DHT22;28991;52.028;5.526;2023-06-14T07:03:05;25.80;35.00
40289;DHT22;28991;52.028;5.526;2023-06-14T07:05:30;25.90;35.00
40289;DHT22;28991;52.028;5.526;2023-06-14T07:07:57;25.90;34.90
40289;DHT22;28991;52.028;5.526;2023-06-14T07:10:22;25.90;35.00
40289;DHT22;28991;52.028;5.526;2023-06-14T07:12:50;25.90;35.00
40289;DHT22;28991;52.028;5.526;2023-06-14T07:15:18;25.90;35.00
40289;DHT22;28991;52.028;5.526;2023-06-14T07:17:44;26.00;35.10
40289;DHT22;28991;52.028;5.526;2023-06-14T07:20:11;26.00;34.90
40289;DHT22;28991;52.028;5.526;2023-06-14T07:22:42;26.00;34.80
40289;DHT22;28991;52.028;5.526;2023-06-14T07:25:09;26.00;34.90
40289;DHT22;28991;52.028;5.526;2023-06-14T07:27:34;26.00;34.70
40289;DHT22;28991;52.028;5.526;2023-06-14T07:30:00;26.00;34.50
40289;DHT22;28991;52.028;5.526;2023-06-14T07:32:25;26.00;34.50
40289;DHT22;28991;52.028;5.526;2023-06-14T07:34:51;26.00;34.40
40289;DHT22;28991;52.028;5.526;2023-06-14T07:37:16;26.00;34.50
40289;DHT22;28991;52.028;5.526;2023-06-14T07:39:42;26.10;34.70
40289;DHT22;28991;52.028;5.526;2023-06-14T07:42:08;26.10;34.70
40289;DHT22;28991;52.028;5.526;2023-06-14T07:44:33;27.00;35.50
40289;DHT22;28991;52.028;5.526;2023-06-14T07:46:59;26.10;34.80
40289;DHT22;28991;52.028;5.526;2023-06-14T07:49:25;26.10;34.90
40289;DHT22;28991;52.028;5.526;2023-06-14T07:51:51;26.20;34.60
40289;DHT22;28991;52.028;5.526;2023-06-14T07:54:16;26.20;34.60
40289;DHT22;28991;52.028;5.526;2023-06-14T07:56:42;26.20;34.40
40289;DHT22;28991;52.028;5.526;2023-06-14T07:59:08;26.20;34.00
40289;DHT22;28991;52.028;5.526;2023-06-14T08:01:34;26.10;33.70
40289;DHT22;28991;52.028;5.526;2023-06-14T08:04:00;26.20;33.90
40289;DHT22;28991;52.028;5.526;2023-06-14T08:06:26;26.50;33.60
40289;DHT22;28991;52.028;5.526;2023-06-14T08:08:52;26.20;33.30
40289;DHT22;28991;52.028;5.526;2023-06-14T08:11:18;26.10;33.40
40289;DHT22;28991;52.028;5.526;2023-06-14T08:13:43;26.10;32.90
40289;DHT22;28991;52.028;5.526;2023-06-14T08:16:09;26.30;33.10
40289;DHT22;28991;52.028;5.526;2023-06-14T08:18:34;26.10;32.70
40289;DHT22;28991;52.028;5.526;2023-06-14T08:21:00;26.10;32.70
40289;DHT22;28991;52.028;5.526;2023-06-14T08:23:25;26.10;33.10
40289;DHT22;28991;52.028;5.526;2023-06-14T08:25:52;26.10;33.20
40289;DHT22;28991;52.028;5.526;2023-06-14T08:28:18;26.10;32.90
40289;DHT22;28991;52.028;5.526;2023-06-14T08:30:43;26.20;32.80
40289;DHT22;28991;52.028;5.526;2023-06-14T08:33:09;26.10;32.60
40289;DHT22;28991;52.028;5.526;2023-06-14T08:35:34;26.20;32.70
40289;DHT22;28991;52.028;5.526;2023-06-14T08:38:03;26.20;32.40
40289;DHT22;28991;52.028;5.526;2023-06-14T08:40:30;26.20;32.60
40289;DHT22;28991;52.028;5.526;2023-06-14T08:42:56;26.10;31.90
40289;DHT22;28991;52.028;5.526;2023-06-14T08:45:22;26.20;32.10
40289;DHT22;28991;52.028;5.526;2023-06-14T08:47:49;26.10;31.80
40289;DHT22;28991;52.028;5.526;2023-06-14T08:50:26;26.10;32.10
40289;DHT22;28991;52.028;5.526;2023-06-14T08:52:57;26.20;32.20
40289;DHT22;28991;52.028;5.526;2023-06-14T08:55:26;26.20;32.40
40289;DHT22;28991;52.028;5.526;2023-06-14T08:57:54;26.20;32.30
40289;DHT22;28991;52.028;5.526;2023-06-14T09:00:20;26.20;32.40
40289;DHT22;28991;52.028;5.526;2023-06-14T09:02:46;26.20;32.20
40289;DHT22;28991;52.028;5.526;2023-06-14T09:05:15;26.30;32.30
40289;DHT22;28991;52.028;5.526;2023-06-14T09:07:44;26.30;31.90
40289;DHT22;28991;52.028;5.526;2023-06-14T09:10:14;26.30;31.90
40289;DHT22;28991;52.028;5.526;2023-06-14T09:12:40;26.30;31.30
40289;DHT22;28991;52.028;5.526;2023-06-14T09:15:06;26.30;31.40
40289;DHT22;28991;52.028;5.526;2023-06-14T09:17:40;26.30;31.20
40289;DHT22;28991;52.028;5.526;2023-06-14T09:20:07;26.20;30.30
40289;DHT22;28991;52.028;5.526;2023-06-14T09:22:36;26.20;30.40
40289;DHT22;28991;52.028;5.526;2023-06-14T09:25:02;26.10;30.50
40289;DHT22;28991;52.028;5.526;2023-06-14T09:27:29;26.10;30.20
40289;DHT22;28991;52.028;5.526;2023-06-14T09:29:55;26.10;30.00
40289;DHT22;28991;52.028;5.526;2023-06-14T09:32:21;26.00;30.00
40289;DHT22;28991;52.028;5.526;2023-06-14T09:34:47;26.10;30.80
40289;DHT22;28991;52.028;5.526;2023-06-14T09:37:13;26.10;30.60
40289;DHT22;28991;52.028;5.526;2023-06-14T09:39:52;26.20;30.50
40289;DHT22;28991;52.028;5.526;2023-06-14T09:42:18;26.20;30.20
40289;DHT22;28991;52.028;5.526;2023-06-14T09:44:47;26.20;29.60
40289;DHT22;28991;52.028;5.526;2023-06-14T09:47:15;26.20;29.90
40289;DHT22;28991;52.028;5.526;2023-06-14T09:49:41;26.20;29.60
40289;DHT22;28991;52.028;5.526;2023-06-14T09:52:10;26.20;29.80
40289;DHT22;28991;52.028;5.526;2023-06-14T09:54:41;26.20;29.80
40289;DHT22;28991;52.028;5.526;2023-06-14T09:57:12;26.20;29.80
40289;DHT22;28991;52.028;5.526;2023-06-14T09:59:42;26.20;30.00
40289;DHT22;28991;52.028;5.526;2023-06-14T10:02:21;26.30;29.80
40289;DHT22;28991;52.028;5.526;2023-06-14T10:04:53;26.30;30.20
40289;DHT22;28991;52.028;5.526;2023-06-14T10:07:23;26.20;29.70
40289;DHT22;28991;52.028;5.526;2023-06-14T10:09:52;26.20;29.80
40289;DHT22;28991;52.028;5.526;2023-06-14T10:12:18;26.20;29.90
40289;DHT22;28991;52.028;5.526;2023-06-14T10:14:51;26.20;30.00
40289;DHT22;28991;52.028;5.526;2023-06-14T10:17:33;26.20;30.00
40289;DHT22;28991;52.028;5.526;2023-06-14T10:20:06;26.20;30.10
40289;DHT22;28991;52.028;5.526;2023-06-14T10:22:41;26.20;30.10
40289;DHT22;28991;52.028;5.526;2023-06-14T10:25:13;26.10;30.10
40289;DHT22;28991;52.028;5.526;2023-06-14T10:27:51;26.20;30.30
40289;DHT22;28991;52.028;5.526;2023-06-14T10:30:16;26.20;30.20
40289;DHT22;28991;52.028;5.526;2023-06-14T10:33:10;26.20;30.00
40289;DHT22;28991;52.028;5.526;2023-06-14T10:35:36;26.30;30.00
40289;DHT22;28991;52.028;5.526;2023-06-14T10:38:09;26.20;30.10
40289;DHT22;28991;52.028;5.526;2023-06-14T10:40:36;26.10;30.20
40289;DHT22;28991;52.028;5.526;2023-06-14T10:43:23;26.10;30.40
40289;DHT22;28991;52.028;5.526;2023-06-14T10:46:11;26.10;30.20
40289;DHT22;28991;52.028;5.526;2023-06-14T10:48:41;26.10;30.40
40289;DHT22;28991;52.028;5.526;2023-06-14T10:51:18;26.10;30.20
40289;DHT22;28991;52.028;5.526;2023-06-14T10:53:46;26.10;30.30
40289;DHT22;28991;52.028;5.526;2023-06-14T10:56:29;26.10;30.50
40289;DHT22;28991;52.028;5.526;2023-06-14T10:58:57;26.10;30.90
40289;DHT22;28991;52.028;5.526;2023-06-14T11:01:35;26.20;31.00
40289;DHT22;28991;52.028;5.526;2023-06-14T11:04:09;26.10;30.80
40289;DHT22;28991;52.028;5.526;2023-06-14T11:06:45;26.10;30.80
40289;DHT22;28991;52.028;5.526;2023-06-14T11:11:48;26.10;30.70
40289;DHT22;28991;52.028;5.526;2023-06-14T11:14:14;26.20;30.70
40289;DHT22;28991;52.028;5.526;2023-06-14T11:16:39;26.10;30.50
40289;DHT22;28991;52.028;5.526;2023-06-14T11:19:05;26.40;30.70
40289;DHT22;28991;52.028;5.526;2023-06-14T11:21:34;26.10;30.60
40289;DHT22;28991;52.028;5.526;2023-06-14T11:24:10;26.10;30.80
40289;DHT22;28991;52.028;5.526;2023-06-14T11:26:37;26.10;30.70
40289;DHT22;28991;52.028;5.526;2023-06-14T11:29:03;26.10;30.80
40289;DHT22;28991;52.028;5.526;2023-06-14T11:31:29;26.20;30.70
40289;DHT22;28991;52.028;5.526;2023-06-14T11:33:59;26.10;30.60
40289;DHT22;28991;52.028;5.526;2023-06-14T11:36:28;26.20;30.60
40289;DHT22;28991;52.028;5.526;2023-06-14T11:39:05;26.20;30.50
40289;DHT22;28991;52.028;5.526;2023-06-14T11:41:40;26.20;30.10
40289;DHT22;28991;52.028;5.526;2023-06-14T11:44:07;26.20;30.10
40289;DHT22;28991;52.028;5.526;2023-06-14T11:46:33;26.20;30.40
40289;DHT22;28991;52.028;5.526;2023-06-14T11:48:59;26.20;30.20
40289;DHT22;28991;52.028;5.526;2023-06-14T11:51:29;26.20;30.30
40289;DHT22;28991;52.028;5.526;2023-06-14T11:53:55;26.30;29.90
40289;DHT22;28991;52.028;5.526;2023-06-14T11:56:21;26.00;29.70
40289;DHT22;28991;52.028;5.526;2023-06-14T11:58:46;26.20;30.00
40289;DHT22;28991;52.028;5.526;2023-06-14T12:01:18;26.20;30.00
40289;DHT22;28991;52.028;5.526;2023-06-14T12:03:52;26.20;30.00
40289;DHT22;28991;52.028;5.526;2023-06-14T12:06:26;26.20;30.00
40289;DHT22;28991;52.028;5.526;2023-06-14T12:08:55;26.30;29.90
40289;DHT22;28991;52.028;5.526;2023-06-14T12:11:21;26.30;29.90
40289;DHT22;28991;52.028;5.526;2023-06-14T12:13:48;26.50;29.60
40289;DHT22;28991;52.028;5.526;2023-06-14T12:16:14;26.40;29.80
40289;DHT22;28991;52.028;5.526;2023-06-14T12:18:40;26.30;29.90
40289;DHT22;28991;52.028;5.526;2023-06-14T12:21:09;26.30;30.00
40289;DHT22;28991;52.028;5.526;2023-06-14T12:23:53;26.40;30.00
40289;DHT22;28991;52.028;5.526;2023-06-14T12:26:20;26.30;30.00
40289;DHT22;28991;52.028;5.526;2023-06-14T12:28:47;26.40;30.10
40289;DHT22;28991;52.028;5.526;2023-06-14T12:31:15;26.30;30.10
40289;DHT22;28991;52.028;5.526;2023-06-14T12:33:41;26.30;30.30
40289;DHT22;28991;52.028;5.526;2023-06-14T12:36:07;26.20;30.30
40289;DHT22;28991;52.028;5.526;2023-06-14T12:38:34;26.30;30.60
40289;DHT22;28991;52.028;5.526;2023-06-14T12:40:59;26.40;30.60
40289;DHT22;28991;52.028;5.526;2023-06-14T12:43:25;26.30;30.40
40289;DHT22;28991;52.028;5.526;2023-06-14T12:45:51;26.40;30.30
40289;DHT22;28991;52.028;5.526;2023-06-14T12:48:17;26.40;30.00
40289;DHT22;28991;52.028;5.526;2023-06-14T12:50:43;26.30;30.30
40289;DHT22;28991;52.028;5.526;2023-06-14T12:53:08;26.30;30.00
40289;DHT22;28991;52.028;5.526;2023-06-14T12:55:34;26.30;30.00
40289;DHT22;28991;52.028;5.526;2023-06-14T12:57:59;26.60;30.10
40289;DHT22;28991;52.028;5.526;2023-06-14T13:00:25;26.40;30.00
40289;DHT22;28991;52.028;5.526;2023-06-14T13:02:51;26.40;30.00
40289;DHT22;28991;52.028;5.526;2023-06-14T13:05:18;26.50;30.10
40289;DHT22;28991;52.028;5.526;2023-06-14T13:07:43;26.40;30.20
40289;DHT22;28991;52.028;5.526;2023-06-14T13:10:10;26.50;30.20
40289;DHT22;28991;52.028;5.526;2023-06-14T13:12:35;26.50;30.20
40289;DHT22;28991;52.028;5.526;2023-06-14T13:15:01;26.50;30.40
40289;DHT22;28991;52.028;5.526;2023-06-14T13:17:27;26.50;30.50
40289;DHT22;28991;52.028;5.526;2023-06-14T13:19:52;26.60;30.60
40289;DHT22;28991;52.028;5.526;2023-06-14T13:22:18;26.80;30.90
40289;DHT22;28991;52.028;5.526;2023-06-14T13:24:44;26.60;30.70
40289;DHT22;28991;52.028;5.526;2023-06-14T13:27:09;26.80;31.00
40289;DHT22;28991;52.028;5.526;2023-06-14T13:29:36;26.60;30.80
40289;DHT22;28991;52.028;5.526;2023-06-14T13:32:02;26.70;30.90
40289;DHT22;28991;52.028;5.526;2023-06-14T13:34:28;26.70;30.80
40289;DHT22;28991;52.028;5.526;2023-06-14T13:36:54;26.60;30.70
40289;DHT22;28991;52.028;5.526;2023-06-14T13:39:19;26.70;30.50
40289;DHT22;28991;52.028;5.526;2023-06-14T13:41:45;26.70;30.40
40289;DHT22;28991;52.028;5.526;2023-06-14T13:44:10;27.00;30.50
40289;DHT22;28991;52.028;5.526;2023-06-14T13:46:40;26.70;30.30
40289;DHT22;28991;52.028;5.526;2023-06-14T13:49:08;26.60;30.30
40289;DHT22;28991;52.028;5.526;2023-06-14T13:51:33;26.70;30.20
40289;DHT22;28991;52.028;5.526;2023-06-14T13:54:00;26.70;30.20
40289;DHT22;28991;52.028;5.526;2023-06-14T13:56:26;26.70;30.20
40289;DHT22;28991;52.028;5.526;2023-06-14T13:58:52;26.70;30.60
40289;DHT22;28991;52.028;5.526;2023-06-14T14:01:18;26.70;30.00
40289;DHT22;28991;52.028;5.526;2023-06-14T14:03:46;26.60;30.00
40289;DHT22;28991;52.028;5.526;2023-06-14T14:06:12;26.70;30.10
40289;DHT22;28991;52.028;5.526;2023-06-14T14:08:38;26.70;30.30
40289;DHT22;28991;52.028;5.526;2023-06-14T14:11:05;26.70;30.10
40289;DHT22;28991;52.028;5.526;2023-06-14T14:13:31;26.60;30.10
40289;DHT22;28991;52.028;5.526;2023-06-14T14:15:57;26.70;30.50
40289;DHT22;28991;52.028;5.526;2023-06-14T14:18:22;26.70;30.60
40289;DHT22;28991;52.028;5.526;2023-06-14T14:20:48;26.70;30.60
40289;DHT22;28991;52.028;5.526;2023-06-14T14:23:14;26.80;30.80
40289;DHT22;28991;52.028;5.526;2023-06-14T14:25:40;26.80;30.90
40289;DHT22;28991;52.028;5.526;2023-06-14T14:28:05;26.80;30.90
40289;DHT22;28991;52.028;5.526;2023-06-14T14:30:31;26.80;30.90
40289;DHT22;28991;52.028;5.526;2023-06-14T14:32:56;26.90;31.00
40289;DHT22;28991;52.028;5.526;2023-06-14T14:35:22;26.90;31.00
40289;DHT22;28991;52.028;5.526;2023-06-14T14:37:49;26.90;30.80
40289;DHT22;28991;52.028;5.526;2023-06-14T14:40:15;26.90;30.70
40289;DHT22;28991;52.028;5.526;2023-06-14T14:42:41;26.90;30.90
40289;DHT22;28991;52.028;5.526;2023-06-14T14:45:06;26.90;30.80
40289;DHT22;28991;52.028;5.526;2023-06-14T14:47:32;26.90;30.80
40289;DHT22;28991;52.028;5.526;2023-06-14T14:49:58;26.90;30.70
40289;DHT22;28991;52.028;5.526;2023-06-14T14:52:23;26.90;30.60
40289;DHT22;28991;52.028;5.526;2023-06-14T14:54:50;26.90;31.00
40289;DHT22;28991;52.028;5.526;2023-06-14T14:57:15;26.90;30.80
40289;DHT22;28991;52.028;5.526;2023-06-14T14:59:41;26.90;30.80
40289;DHT22;28991;52.028;5.526;2023-06-14T15:02:06;26.90;31.00
40289;DHT22;28991;52.028;5.526;2023-06-14T15:04:32;26.80;30.80
40289;DHT22;28991;52.028;5.526;2023-06-14T15:06:58;26.80;30.80
40289;DHT22;28991;52.028;5.526;2023-06-14T15:09:23;26.80;31.00
40289;DHT22;28991;52.028;5.526;2023-06-14T15:11:49;26.80;30.90
40289;DHT22;28991;52.028;5.526;2023-06-14T15:14:14;26.80;30.90
40289;DHT22;28991;52.028;5.526;2023-06-14T15:16:41;26.80;31.10
40289;DHT22;28991;52.028;5.526;2023-06-14T15:19:06;26.80;31.00
40289;DHT22;28991;52.028;5.526;2023-06-14T15:21:32;26.80;30.90
40289;DHT22;28991;52.028;5.526;2023-06-14T15:23:57;26.80;31.00
40289;DHT22;28991;52.028;5.526;2023-06-14T15:26:23;26.80;31.00
40289;DHT22;28991;52.028;5.526;2023-06-14T15:28:50;26.70;30.80
40289;DHT22;28991;52.028;5.526;2023-06-14T15:31:15;26.80;30.80
40289;DHT22;28991;52.028;5.526;2023-06-14T15:33:41;26.70;30.90
40289;DHT22;28991;52.028;5.526;2023-06-14T15:36:06;26.70;30.80
40289;DHT22;28991;52.028;5.526;2023-06-14T15:38:35;26.70;30.80